sensor_id;sensor_type;location;lat;lon;timestamp;P1;durP1;ratioP1;P2;durP2;ratioP2
13687;SDS011;6916;51.504;7.416;2023-04-03T00:03:01;6.07;;;5.47;;
13687;SDS011;6916;51.504;7.416;2023-04-03T00:13:04;6.07;;;5.20;;
13687;SDS011;6916;51.504;7.416;2023-04-03T00:23:08;8.37;;;5.13;;
13687;SDS011;6916;51.504;7.416;2023-04-03T00:33:14;9.77;;;6.13;;
13687;SDS011;6916;51.504;7.416;2023-04-03T00:43:18;7.47;;;5.90;;
13687;SDS011;6916;51.504;7.416;2023-04-03T00:53:26;8.80;;;5.70;;
13687;SDS011;6916;51.504;7.416;2023-04-03T01:03:33;6.17;;;4.03;;
13687;SDS011;6916;51.504;7.416;2023-04-03T01:13:38;7.17;;;4.10;;
13687;SDS011;6916;51.504;7.416;2023-04-03T01:23:48;6.00;;;3.17;;
13687;SDS011;6916;51.504;7.416;2023-04-03T01:33:57;5.33;;;1.67;;
13687;SDS011;6916;51.504;7.416;2023-04-03T01:43:59;3.10;;;2.03;;
13687;SDS011;6916;51.504;7.416;2023-04-03T01:54:02;3.83;;;1.67;;
13687;SDS011;6916;51.504;7.416;2023-04-03T02:04:05;4.57;;;1.87;;
13687;SDS011;6916;51.504;7.416;2023-04-03T02:14:07;2.37;;;1.67;;
13687;SDS011;6916;51.504;7.416;2023-04-03T02:24:10;3.13;;;1.60;;
13687;SDS011;6916;51.504;7.416;2023-04-03T02:34:13;3.00;;;1.30;;
13687;SDS011;6916;51.504;7.416;2023-04-03T02:44:17;3.27;;;1.13;;
13687;SDS011;6916;51.504;7.416;2023-04-03T02:54:21;1.70;;;1.20;;
13687;SDS011;6916;51.504;7.416;2023-04-03T03:04:28;5.93;;;1.13;;
13687;SDS011;6916;51.504;7.416;2023-04-03T03:14:31;2.93;;;0.80;;
13687;SDS011;6916;51.504;7.416;2023-04-03T03:24:33;0.90;;;0.70;;
13687;SDS011;6916;51.504;7.416;2023-04-03T03:34:36;1.67;;;1.10;;
13687;SDS011;6916;51.504;7.416;2023-04-03T03:44:40;2.67;;;0.80;;
13687;SDS011;6916;51.504;7.416;2023-04-03T03:54:42;4.03;;;1.40;;
13687;SDS011;6916;51.504;7.416;2023-04-03T04:04:44;3.00;;;1.10;;
13687;SDS011;6916;51.504;7.416;2023-04-03T04:14:48;2.90;;;0.97;;
13687;SDS011;6916;51.504;7.416;2023-04-03T04:24:51;3.47;;;1.00;;
13687;SDS011;6916;51.504;7.416;2023-04-03T04:34:53;3.13;;;0.93;;
13687;SDS011;6916;51.504;7.416;2023-04-03T04:44:56;3.90;;;1.00;;
13687;SDS011;6916;51.504;7.416;2023-04-03T04:54:59;3.07;;;1.00;;
13687;SDS011;6916;51.504;7.416;2023-04-03T05:05:02;3.67;;;1.00;;
13687;SDS011;6916;51.504;7.416;2023-04-03T05:15:07;3.43;;;1.27;;
13687;SDS011;6916;51.504;7.416;2023-04-03T05:25:14;5.47;;;1.07;;
13687;SDS011;6916;51.504;7.416;2023-04-03T05:35:18;3.77;;;1.27;;
13687;SDS011;6916;51.504;7.416;2023-04-03T05:45:24;3.53;;;1.80;;
13687;SDS011;6916;51.504;7.416;2023-04-03T05:55:27;3.03;;;1.00;;
13687;SDS011;6916;51.504;7.416;2023-04-03T06:05:29;4.03;;;1.40;;
13687;SDS011;6916;51.504;7.416;2023-04-03T06:15:32;4.20;;;1.33;;
13687;SDS011;6916;51.504;7.416;2023-04-03T06:25:35;8.17;;;1.23;;
13687;SDS011;6916;51.504;7.416;2023-04-03T06:35:38;3.40;;;0.90;;
13687;SDS011;6916;51.504;7.416;2023-04-03T06:45:41;3.00;;;1.00;;
13687;SDS011;6916;51.504;7.416;2023-04-03T06:55:43;2.93;;;0.80;;
13687;SDS011;6916;51.504;7.416;2023-04-03T07:05:46;5.90;;;1.00;;
13687;SDS011;6916;51.504;7.416;2023-04-03T07:15:48;4.27;;;0.97;;
13687;SDS011;6916;51.504;7.416;2023-04-03T07:25:51;3.30;;;0.93;;
13687;SDS011;6916;51.504;7.416;2023-04-03T07:35:54;1.43;;;0.80;;
13687;SDS011;6916;51.504;7.416;2023-04-03T07:45:57;3.33;;;0.80;;
13687;SDS011;6916;51.504;7.416;2023-04-03T07:55:59;1.77;;;0.73;;
13687;SDS011;6916;51.504;7.416;2023-04-03T08:06:03;4.23;;;0.73;;
13687;SDS011;6916;51.504;7.416;2023-04-03T08:16:17;2.77;;;0.50;;
13687;SDS011;6916;51.504;7.416;2023-04-03T08:26:22;4.10;;;0.97;;
13687;SDS011;6916;51.504;7.416;2023-04-03T08:36:25;5.10;;;0.80;;
13687;SDS011;6916;51.504;7.416;2023-04-03T08:56:47;2.13;;;0.43;;
13687;SDS011;6916;51.504;7.416;2023-04-03T09:06:52;1.87;;;0.60;;
13687;SDS011;6916;51.504;7.416;2023-04-03T09:16:56;4.30;;;0.50;;
13687;SDS011;6916;51.504;7.416;2023-04-03T09:27:06;1.70;;;0.50;;
13687;SDS011;6916;51.504;7.416;2023-04-03T09:37:11;0.93;;;0.40;;
13687;SDS011;6916;51.504;7.416;2023-04-03T09:47:40;2.93;;;0.70;;
13687;SDS011;6916;51.504;7.416;2023-04-03T09:57:45;1.43;;;0.73;;
13687;SDS011;6916;51.504;7.416;2023-04-03T10:07:47;1.90;;;0.50;;
13687;SDS011;6916;51.504;7.416;2023-04-03T10:18:19;3.23;;;0.53;;
13687;SDS011;6916;51.504;7.416;2023-04-03T10:59:55;1.73;;;0.30;;
13687;SDS011;6916;51.504;7.416;2023-04-03T11:10:02;1.03;;;0.30;;
13687;SDS011;6916;51.504;7.416;2023-04-03T11:20:16;1.17;;;0.40;;
13687;SDS011;6916;51.504;7.416;2023-04-03T12:00:50;2.43;;;0.40;;
13687;SDS011;6916;51.504;7.416;2023-04-03T12:22:04;1.97;;;0.37;;
13687;SDS011;6916;51.504;7.416;2023-04-03T12:52:41;1.67;;;0.40;;
13687;SDS011;6916;51.504;7.416;2023-04-03T13:02:44;1.50;;;0.33;;
13687;SDS011;6916;51.504;7.416;2023-04-03T13:22:55;2.97;;;0.47;;
13687;SDS011;6916;51.504;7.416;2023-04-03T13:33:00;0.80;;;0.30;;
13687;SDS011;6916;51.504;7.416;2023-04-03T13:43:05;1.37;;;0.40;;
13687;SDS011;6916;51.504;7.416;2023-04-03T13:53:18;2.47;;;0.70;;
13687;SDS011;6916;51.504;7.416;2023-04-03T14:13:50;1.20;;;0.30;;
13687;SDS011;6916;51.504;7.416;2023-04-03T14:23:53;2.20;;;0.40;;
13687;SDS011;6916;51.504;7.416;2023-04-03T14:33:55;2.33;;;0.40;;
13687;SDS011;6916;51.504;7.416;2023-04-03T14:43:57;3.03;;;0.60;;
13687;SDS011;6916;51.504;7.416;2023-04-03T14:54:00;0.73;;;0.30;;
13687;SDS011;6916;51.504;7.416;2023-04-03T15:04:13;3.80;;;1.10;;
13687;SDS011;6916;51.504;7.416;2023-04-03T15:14:16;1.77;;;0.53;;
13687;SDS011;6916;51.504;7.416;2023-04-03T15:24:38;2.57;;;0.37;;
13687;SDS011;6916;51.504;7.416;2023-04-03T15:34:40;1.37;;;0.57;;
13687;SDS011;6916;51.504;7.416;2023-04-03T15:44:42;2.53;;;0.60;;
13687;SDS011;6916;51.504;7.416;2023-04-03T15:54:45;2.00;;;0.50;;
13687;SDS011;6916;51.504;7.416;2023-04-03T16:04:48;1.97;;;0.60;;
13687;SDS011;6916;51.504;7.416;2023-04-03T16:14:51;0.53;;;0.30;;
13687;SDS011;6916;51.504;7.416;2023-04-03T16:24:54;2.00;;;0.40;;
13687;SDS011;6916;51.504;7.416;2023-04-03T16:34:56;1.17;;;0.70;;
13687;SDS011;6916;51.504;7.416;2023-04-03T16:44:59;1.70;;;0.43;;
13687;SDS011;6916;51.504;7.416;2023-04-03T16:55:04;1.87;;;0.60;;
13687;SDS011;6916;51.504;7.416;2023-04-03T17:05:08;1.03;;;0.43;;
13687;SDS011;6916;51.504;7.416;2023-04-03T17:15:11;0.87;;;0.40;;
13687;SDS011;6916;51.504;7.416;2023-04-03T17:25:15;5.23;;;0.83;;
13687;SDS011;6916;51.504;7.416;2023-04-03T17:35:17;1.60;;;0.60;;
13687;SDS011;6916;51.504;7.416;2023-04-03T17:45:19;2.20;;;0.40;;
13687;SDS011;6916;51.504;7.416;2023-04-03T17:55:21;3.60;;;0.73;;
13687;SDS011;6916;51.504;7.416;2023-04-03T18:05:29;3.20;;;0.60;;
13687;SDS011;6916;51.504;7.416;2023-04-03T18:15:32;3.40;;;0.73;;
13687;SDS011;6916;51.504;7.416;2023-04-03T18:25:35;2.13;;;0.70;;
13687;SDS011;6916;51.504;7.416;2023-04-03T18:35:38;2.23;;;0.73;;
13687;SDS011;6916;51.504;7.416;2023-04-03T18:45:41;5.20;;;1.13;;
13687;SDS011;6916;51.504;7.416;2023-04-03T18:55:45;1.80;;;0.80;;
13687;SDS011;6916;51.504;7.416;2023-04-03T19:05:48;2.60;;;0.67;;
13687;SDS011;6916;51.504;7.416;2023-04-03T19:15:50;3.50;;;0.80;;
13687;SDS011;6916;51.504;7.416;2023-04-03T19:26:00;4.00;;;0.83;;
13687;SDS011;6916;51.504;7.416;2023-04-03T19:36:04;2.57;;;0.97;;
13687;SDS011;6916;51.504;7.416;2023-04-03T19:46:07;3.30;;;0.60;;
13687;SDS011;6916;51.504;7.416;2023-04-03T19:56:10;2.53;;;0.93;;
13687;SDS011;6916;51.504;7.416;2023-04-03T20:06:19;3.27;;;0.60;;
13687;SDS011;6916;51.504;7.416;2023-04-03T20:16:22;2.63;;;0.80;;
13687;SDS011;6916;51.504;7.416;2023-04-03T20:26:27;2.17;;;0.60;;
13687;SDS011;6916;51.504;7.416;2023-04-03T20:36:32;1.33;;;0.67;;
13687;SDS011;6916;51.504;7.416;2023-04-03T20:46:35;2.33;;;0.63;;
13687;SDS011;6916;51.504;7.416;2023-04-03T20:56:54;1.80;;;0.90;;
13687;SDS011;6916;51.504;7.416;2023-04-03T21:28:01;1.33;;;0.70;;
13687;SDS011;6916;51.504;7.416;2023-04-03T21:38:03;1.60;;;0.70;;
13687;SDS011;6916;51.504;7.416;2023-04-03T21:48:08;3.30;;;0.77;;
13687;SDS011;6916;51.504;7.416;2023-04-03T21:58:11;3.30;;;0.57;;
13687;SDS011;6916;51.504;7.416;2023-04-03T22:08:13;1.40;;;0.70;;
13687;SDS011;6916;51.504;7.416;2023-04-03T22:18:16;2.03;;;1.10;;
13687;SDS011;6916;51.504;7.416;2023-04-03T22:28:18;4.37;;;0.90;;
13687;SDS011;6916;51.504;7.416;2023-04-03T22:38:21;3.13;;;0.83;;
13687;SDS011;6916;51.504;7.416;2023-04-03T22:48:23;1.87;;;0.90;;
13687;SDS011;6916;51.504;7.416;2023-04-03T22:58:26;1.80;;;1.03;;
13687;SDS011;6916;51.504;7.416;2023-04-03T23:08:30;2.57;;;1.03;;
13687;SDS011;6916;51.504;7.416;2023-04-03T23:18:33;1.90;;;1.03;;
13687;SDS011;6916;51.504;7.416;2023-04-03T23:28:35;4.03;;;1.50;;
13687;SDS011;6916;51.504;7.416;2023-04-03T23:38:38;5.40;;;2.20;;
13687;SDS011;6916;51.504;7.416;2023-04-03T23:48:40;3.80;;;1.93;;
13687;SDS011;6916;51.504;7.416;2023-04-03T23:58:42;3.73;;;1.93;;
